createdAt,value
2022-09-02T00:01:02.369Z,16.42
2022-09-02T00:03:31.434Z,16.39
2022-09-02T00:05:58.499Z,16.34
2022-09-02T00:08:25.566Z,16.32
2022-09-02T00:10:52.304Z,16.31
2022-09-02T00:13:22.840Z,16.28
2022-09-02T00:15:49.511Z,16.24
2022-09-02T00:18:18.212Z,16.22
2022-09-02T00:20:47.995Z,16.22
2022-09-02T00:23:16.651Z,16.20
2022-09-02T00:25:45.175Z,16.16
2022-09-02T00:28:15.013Z,16.13
2022-09-02T00:30:42.298Z,16.10
2022-09-02T00:33:09.698Z,16.09
2022-09-02T00:35:36.773Z,16.04
2022-09-02T00:38:06.592Z,16.03
2022-09-02T00:40:34.461Z,16.00
2022-09-02T00:43:01.705Z,15.99
2022-09-02T00:45:29.004Z,15.99
2022-09-02T00:47:55.613Z,15.98
2022-09-02T00:50:26.918Z,15.96
2022-09-02T00:52:58.288Z,15.95
2022-09-02T00:55:29.775Z,15.93
2022-09-02T00:58:00.917Z,15.92
2022-09-02T01:00:34.797Z,15.91
2022-09-02T01:03:07.037Z,15.90
2022-09-02T01:05:43.643Z,15.90
2022-09-02T01:08:11.697Z,15.90
2022-09-02T01:10:40.335Z,15.88
2022-09-02T01:13:11.936Z,15.89
2022-09-02T01:15:44.022Z,15.90
2022-09-02T01:18:15.132Z,15.92
2022-09-02T01:20:42.567Z,15.92
2022-09-02T01:23:09.290Z,15.96
2022-09-02T01:25:37.397Z,15.95
2022-09-02T01:28:10.395Z,15.96
2022-09-02T01:30:41.391Z,15.95
2022-09-02T01:33:08.689Z,15.95
2022-09-02T01:35:35.810Z,15.94
2022-09-02T01:38:03.969Z,15.93
2022-09-02T01:40:31.741Z,15.91
2022-09-02T01:43:07.799Z,15.91
2022-09-02T01:45:36.793Z,15.93
2022-09-02T01:48:06.435Z,15.93
2022-09-02T01:50:35.797Z,15.93
2022-09-02T01:53:03.857Z,15.92
2022-09-02T01:55:33.218Z,15.93
2022-09-02T01:58:00.559Z,15.92
2022-09-02T02:00:28.052Z,15.91
2022-09-02T02:02:55.250Z,15.89
2022-09-02T02:05:22.644Z,15.88
2022-09-02T02:07:49.768Z,15.87
2022-09-02T02:10:19.204Z,15.85
2022-09-02T02:12:45.826Z,15.83
2022-09-02T02:15:15.877Z,15.82
2022-09-02T02:17:43.872Z,15.78
2022-09-02T02:20:12.877Z,15.78
2022-09-02T02:22:39.648Z,15.76
2022-09-02T02:25:07.148Z,15.77
2022-09-02T02:27:33.786Z,15.75
2022-09-02T02:30:00.995Z,15.75
2022-09-02T02:32:27.669Z,15.76
2022-09-02T02:34:54.501Z,15.75
2022-09-02T02:37:25.489Z,15.76
2022-09-02T02:39:52.695Z,15.75
2022-09-02T02:42:19.469Z,15.74
2022-09-02T02:44:45.991Z,15.75
2022-09-02T02:47:12.731Z,15.74
2022-09-02T02:49:41.386Z,15.74
2022-09-02T02:52:09.416Z,15.72
2022-09-02T02:54:36.601Z,15.72
2022-09-02T02:57:05.233Z,15.71
2022-09-02T02:59:32.069Z,15.69
2022-09-02T03:01:59.160Z,15.70
2022-09-02T03:04:25.884Z,15.69
2022-09-02T03:06:52.498Z,15.69
2022-09-02T03:09:20.480Z,15.69
2022-09-02T03:11:48.269Z,15.70
2022-09-02T03:14:15.303Z,15.68
2022-09-02T03:16:43.399Z,15.66
2022-09-02T03:19:10.025Z,15.65
2022-09-02T03:21:39.180Z,15.63
2022-09-02T03:24:06.712Z,15.64
2022-09-02T03:26:33.363Z,15.64
2022-09-02T03:28:59.980Z,15.63
2022-09-02T03:31:27.410Z,15.63
2022-09-02T03:33:55.217Z,15.62
2022-09-02T03:36:26.586Z,15.60
2022-09-02T03:38:53.645Z,15.58
2022-09-02T03:41:21.014Z,15.58
2022-09-02T03:43:47.883Z,15.58
2022-09-02T03:46:15.081Z,15.57
2022-09-02T03:48:42.294Z,15.54
2022-09-02T03:51:09.051Z,15.53
2022-09-02T03:53:36.049Z,15.52
2022-09-02T03:56:07.997Z,15.53
2022-09-02T03:58:36.314Z,15.52
2022-09-02T04:01:03.675Z,15.49
2022-09-02T04:03:30.771Z,15.51
2022-09-02T04:05:58.189Z,15.51
2022-09-02T04:08:25.379Z,15.52
2022-09-02T04:10:52.301Z,15.52
2022-09-02T04:13:19.759Z,15.51
2022-09-02T04:15:49.039Z,15.49
2022-09-02T04:18:17.464Z,15.51
2022-09-02T04:20:44.936Z,15.51
2022-09-02T04:23:11.890Z,15.52
2022-09-02T04:25:41.188Z,15.50
2022-09-02T04:28:07.848Z,15.50
2022-09-02T04:30:34.598Z,15.48
2022-09-02T04:33:01.194Z,15.48
2022-09-02T04:35:27.756Z,15.45
2022-09-02T04:37:54.390Z,15.44
2022-09-02T04:40:20.997Z,15.43
2022-09-02T04:42:47.630Z,15.44
2022-09-02T04:45:14.669Z,15.44
2022-09-02T04:47:41.196Z,15.42
2022-09-02T04:50:08.059Z,15.39
2022-09-02T04:52:34.748Z,15.39
2022-09-02T04:55:02.506Z,15.38
2022-09-02T04:57:29.243Z,15.36
2022-09-02T04:59:55.842Z,15.35
2022-09-02T05:02:22.955Z,15.33
2022-09-02T05:04:49.964Z,15.32
2022-09-02T05:07:16.555Z,15.36
2022-09-02T05:09:43.168Z,15.39
2022-09-02T05:12:10.698Z,15.41
2022-09-02T05:14:38.075Z,15.43
2022-09-02T05:17:07.625Z,15.45
2022-09-02T05:19:34.815Z,15.49
2022-09-02T05:22:01.893Z,15.52
2022-09-02T05:24:29.625Z,15.55
2022-09-02T05:26:56.397Z,15.54
2022-09-02T05:29:23.879Z,15.58
2022-09-02T05:31:50.692Z,15.62
2022-09-02T05:34:18.046Z,15.68
2022-09-02T05:36:44.982Z,15.80
2022-09-02T05:39:11.624Z,16.11
2022-09-02T05:41:38.636Z,16.35
2022-09-02T05:44:06.573Z,16.59
2022-09-02T05:46:35.465Z,17.02
2022-09-02T05:49:07.051Z,17.58
2022-09-02T05:51:41.594Z,18.10
2022-09-02T05:54:11.414Z,18.64
2022-09-02T05:56:41.101Z,19.05
2022-09-02T05:59:12.884Z,19.53
2022-09-02T06:01:42.585Z,19.89
2022-09-02T06:04:09.317Z,20.28
2022-09-02T06:06:38.759Z,20.58
2022-09-02T06:09:11.513Z,20.87
2022-09-02T06:11:44.656Z,21.10
2022-09-02T06:14:14.237Z,21.42
2022-09-02T06:16:42.101Z,21.45
2022-09-02T06:19:09.169Z,21.61
2022-09-02T06:21:37.789Z,21.88
2022-09-02T06:24:08.760Z,21.99
2022-09-02T06:26:36.217Z,22.18
2022-09-02T06:29:04.102Z,22.42
2022-09-02T06:31:34.613Z,22.64
2022-09-02T06:34:03.431Z,22.84
2022-09-02T06:36:31.363Z,22.93
2022-09-02T06:38:59.596Z,22.99
2022-09-02T06:41:29.462Z,23.05
2022-09-02T06:43:58.114Z,23.21
2022-09-02T06:46:31.168Z,23.20
2022-09-02T06:48:58.073Z,22.85
2022-09-02T06:51:30.687Z,22.23
2022-09-02T06:53:57.628Z,22.14
2022-09-02T06:56:26.892Z,22.56
2022-09-02T06:58:53.854Z,22.90
2022-09-02T07:01:26.818Z,23.20
2022-09-02T07:04:12.505Z,23.27
2022-09-02T07:06:42.661Z,23.22
2022-09-02T07:09:11.812Z,22.93
2022-09-02T07:11:39.354Z,22.36
2022-09-02T07:14:06.691Z,22.06
2022-09-02T07:16:38.611Z,21.78
2022-09-02T07:19:09.906Z,21.53
2022-09-02T07:21:41.096Z,21.66
2022-09-02T07:24:10.422Z,21.72
2022-09-02T07:26:37.539Z,21.71
2022-09-02T07:29:08.890Z,21.94
2022-09-02T07:31:37.056Z,22.20
2022-09-02T07:34:06.033Z,22.37
2022-09-02T07:36:37.511Z,22.43
2022-09-02T07:39:06.658Z,22.43
2022-09-02T07:41:35.968Z,22.35
2022-09-02T07:44:04.738Z,22.27
2022-09-02T07:46:32.309Z,22.02
2022-09-02T07:49:01.447Z,21.91
2022-09-02T07:51:30.913Z,21.93
2022-09-02T07:53:57.996Z,21.81
2022-09-02T07:56:24.657Z,21.82
2022-09-02T07:58:51.289Z,21.91
2022-09-02T08:01:23.133Z,22.18
2022-09-02T08:03:50.431Z,22.41
2022-09-02T08:06:17.363Z,22.62
2022-09-02T08:08:56.530Z,22.77
2022-09-02T08:11:23.840Z,22.81
2022-09-02T08:13:51.166Z,22.83
2022-09-02T08:16:18.171Z,22.82
2022-09-02T08:18:44.805Z,22.83
2022-09-02T08:21:11.379Z,22.94
2022-09-02T08:23:38.130Z,22.96
2022-09-02T08:26:06.453Z,23.06
2022-09-02T08:28:33.578Z,23.14
2022-09-02T08:31:04.723Z,23.20
2022-09-02T08:33:31.223Z,23.23
2022-09-02T08:36:02.710Z,23.25
2022-09-02T08:38:29.245Z,23.26
2022-09-02T08:40:55.879Z,23.20
2022-09-02T08:43:40.112Z,23.12
2022-09-02T08:46:11.264Z,23.22
2022-09-02T08:48:54.099Z,23.34
2022-09-02T08:51:32.116Z,23.42
2022-09-02T08:54:31.641Z,23.57
2022-09-02T08:56:59.023Z,23.67
2022-09-02T08:59:27.921Z,23.81
2022-09-02T09:02:05.408Z,23.90
2022-09-02T09:04:40.701Z,23.79
2022-09-02T09:07:26.125Z,23.70
2022-09-02T09:10:11.315Z,23.68
2022-09-02T09:12:47.926Z,23.72
2022-09-02T09:15:17.309Z,23.69
2022-09-02T09:17:56.736Z,23.81
2022-09-02T09:20:27.488Z,23.88
2022-09-02T09:22:59.913Z,24.00
2022-09-02T09:25:30.244Z,24.20
2022-09-02T09:28:01.670Z,24.43
2022-09-02T09:30:29.527Z,24.59
2022-09-02T09:33:00.238Z,24.55
2022-09-02T09:35:34.448Z,24.49
2022-09-02T09:38:13.183Z,24.57
2022-09-02T09:40:39.791Z,24.71
2022-09-02T09:43:07.923Z,24.82
2022-09-02T09:48:30.820Z,24.96
2022-09-02T09:50:57.306Z,24.97
2022-09-02T09:53:29.373Z,24.95
2022-09-02T09:56:06.647Z,24.89
2022-09-02T09:58:47.587Z,24.87
2022-09-02T10:01:32.361Z,24.91
2022-09-02T10:04:04.972Z,25.12
2022-09-02T10:06:33.371Z,25.29
2022-09-02T10:09:06.011Z,25.39
2022-09-02T10:11:37.775Z,25.47
2022-09-02T10:14:10.575Z,25.42
2022-09-02T10:17:01.636Z,25.46
2022-09-02T10:19:40.615Z,25.53
2022-09-02T10:22:58.855Z,25.62
2022-09-02T10:25:43.329Z,25.51
2022-09-02T10:28:47.642Z,25.52
2022-09-02T10:31:59.127Z,25.57
2022-09-02T10:34:42.533Z,25.59
2022-09-02T10:37:41.498Z,25.71
2022-09-02T10:40:16.033Z,25.78
2022-09-02T10:43:00.694Z,25.75
2022-09-02T10:45:37.948Z,25.83
2022-09-02T10:48:42.184Z,25.80
2022-09-02T10:51:24.936Z,25.90
2022-09-02T10:54:10.962Z,25.91
2022-09-02T10:56:47.419Z,25.98
2022-09-02T10:59:25.285Z,26.11
2022-09-02T11:02:19.192Z,26.24
2022-09-02T11:04:56.668Z,26.35
2022-09-02T11:07:28.961Z,26.50
2022-09-02T11:10:03.766Z,26.50
2022-09-02T11:12:39.230Z,26.54
2022-09-02T11:15:22.011Z,26.57
2022-09-02T11:17:54.843Z,26.50
2022-09-02T11:20:41.677Z,26.36
2022-09-02T11:23:08.122Z,26.33
2022-09-02T11:25:49.468Z,26.34
2022-09-02T11:28:49.298Z,26.26
2022-09-02T11:31:24.664Z,26.28
2022-09-02T11:34:12.145Z,26.34
2022-09-02T11:36:40.670Z,26.40
2022-09-02T11:39:51.481Z,26.48
2022-09-02T11:42:31.182Z,26.62
2022-09-02T11:45:22.956Z,26.75
2022-09-02T11:47:55.259Z,26.83
2022-09-02T11:50:39.596Z,26.97
2022-09-02T11:53:21.870Z,27.09
2022-09-02T11:56:15.924Z,27.31
2022-09-02T11:58:45.504Z,27.28
2022-09-02T12:01:14.872Z,27.16
2022-09-02T12:04:39.778Z,27.17
2022-09-02T12:06:38.514Z,27.39
2022-09-02T12:09:08.462Z,27.39
2022-09-02T12:11:42.884Z,27.09
2022-09-02T12:14:25.965Z,26.86
2022-09-02T12:17:03.721Z,26.69
2022-09-02T12:19:44.810Z,26.77
2022-09-02T12:22:17.312Z,27.09
2022-09-02T12:25:03.403Z,27.43
2022-09-02T12:27:37.397Z,27.74
2022-09-02T12:30:11.634Z,27.98
2022-09-02T12:32:50.006Z,28.22
2022-09-02T12:35:50.275Z,28.43
2022-09-02T12:38:29.044Z,28.48
2022-09-02T12:41:05.827Z,28.56
2022-09-02T12:43:52.632Z,28.59
2022-09-02T12:46:34.071Z,28.71
2022-09-02T12:49:22.703Z,28.88
2022-09-02T12:51:55.246Z,29.04
2022-09-02T12:54:42.173Z,29.09
2022-09-02T12:57:10.243Z,29.15
2022-09-02T12:59:41.805Z,29.15
2022-09-02T13:02:26.763Z,29.26
2022-09-02T13:05:07.150Z,29.31
2022-09-02T13:08:17.713Z,29.21
2022-09-02T13:10:50.542Z,29.01
2022-09-02T13:14:01.602Z,28.58
2022-09-02T13:16:51.118Z,28.29
2022-09-02T13:19:54.997Z,28.04
2022-09-02T13:22:31.119Z,27.93
2022-09-02T13:25:20.964Z,27.78
2022-09-02T13:28:31.306Z,27.60
2022-09-02T13:31:24.779Z,27.53
2022-09-02T13:34:05.623Z,27.55
2022-09-02T13:36:45.477Z,27.53
2022-09-02T13:39:19.210Z,27.55
2022-09-02T13:41:46.889Z,27.58
2022-09-02T13:44:24.104Z,27.58
2022-09-02T13:47:05.347Z,27.64
2022-09-02T13:49:37.755Z,27.71
2022-09-02T13:52:07.929Z,27.65
2022-09-02T13:54:43.570Z,27.59
2022-09-02T13:57:13.094Z,27.55
2022-09-02T13:59:51.126Z,27.50
2022-09-02T14:02:26.870Z,27.43
2022-09-02T14:04:58.865Z,27.24
2022-09-02T14:07:37.288Z,27.21
2022-09-02T14:10:08.647Z,27.14
2022-09-02T14:12:37.737Z,27.10
2022-09-02T14:15:06.802Z,27.09
2022-09-02T14:17:35.715Z,27.17
2022-09-02T14:20:23.447Z,27.34
2022-09-02T14:22:58.741Z,27.45
2022-09-02T14:25:28.457Z,27.39
2022-09-02T14:27:57.574Z,27.37
2022-09-02T14:30:39.355Z,27.39
2022-09-02T14:33:26.175Z,27.41
2022-09-02T14:36:00.421Z,27.38
2022-09-02T14:38:30.928Z,27.30
2022-09-02T14:41:05.904Z,27.20
2022-09-02T14:43:43.529Z,27.20
2022-09-02T14:46:28.315Z,27.29
2022-09-02T14:48:59.968Z,27.41
2022-09-02T14:51:34.573Z,27.41
2022-09-02T14:54:01.165Z,27.37
2022-09-02T14:57:03.591Z,27.31
2022-09-02T14:59:30.822Z,27.20
2022-09-02T15:01:58.972Z,27.07
2022-09-02T15:04:25.959Z,26.97
2022-09-02T15:06:52.570Z,26.82
2022-09-02T15:09:19.651Z,26.70
2022-09-02T15:11:58.546Z,26.58
2022-09-02T15:14:27.722Z,26.51
2022-09-02T15:16:55.233Z,26.46
2022-09-02T15:19:21.843Z,26.35
2022-09-02T15:21:48.441Z,26.37
2022-09-02T15:24:15.639Z,26.53
2022-09-02T15:26:42.293Z,26.57
2022-09-02T15:29:08.844Z,26.60
2022-09-02T15:31:36.511Z,26.74
2022-09-02T15:34:03.252Z,26.84
2022-09-02T15:36:31.474Z,26.91
2022-09-02T15:38:58.044Z,26.98
2022-09-02T15:41:27.368Z,26.84
2022-09-02T15:43:54.136Z,26.78
2022-09-02T15:46:22.396Z,26.81
2022-09-02T15:48:50.164Z,26.82
2022-09-02T15:51:20.179Z,26.75
2022-09-02T15:53:49.197Z,26.66
2022-09-02T15:56:21.134Z,26.58
2022-09-02T15:58:48.144Z,26.50
2022-09-02T16:01:15.001Z,26.45
2022-09-02T16:03:41.735Z,26.30
2022-09-02T16:06:11.170Z,26.17
2022-09-02T16:08:38.819Z,26.17
2022-09-02T16:11:09.508Z,26.09
2022-09-02T16:13:37.684Z,26.07
2022-09-02T16:16:07.194Z,25.99
2022-09-02T16:18:35.412Z,25.91
2022-09-02T16:21:02.445Z,25.88
2022-09-02T16:23:29.052Z,25.91
2022-09-02T16:26:34.079Z,25.93
2022-09-02T16:29:04.010Z,25.85
2022-09-02T16:31:32.686Z,25.77
2022-09-02T16:34:26.769Z,25.75
2022-09-02T16:36:53.329Z,25.69
2022-09-02T16:39:21.098Z,25.65
2022-09-02T16:41:50.229Z,25.59
2022-09-02T16:44:22.051Z,25.53
2022-09-02T16:46:50.495Z,25.48
2022-09-02T16:49:20.112Z,25.43
2022-09-02T16:51:48.413Z,25.35
2022-09-02T16:54:17.379Z,25.35
2022-09-02T16:56:48.049Z,25.33
2022-09-02T16:59:14.764Z,25.30
2022-09-02T17:01:41.787Z,25.26
2022-09-02T17:04:09.001Z,25.19
2022-09-02T17:06:41.275Z,25.17
2022-09-02T17:09:09.281Z,25.17
2022-09-02T17:11:39.541Z,25.12
2022-09-02T17:14:09.508Z,25.12
2022-09-02T17:16:38.817Z,25.09
2022-09-02T17:19:07.506Z,25.07
2022-09-02T17:21:46.986Z,25.06
2022-09-02T17:24:15.624Z,25.05
2022-09-02T17:26:46.820Z,25.02
2022-09-02T17:29:47.133Z,24.98
2022-09-02T17:32:06.091Z,24.95
2022-09-02T17:34:33.788Z,24.89
2022-09-02T17:37:02.870Z,24.88
2022-09-02T17:39:30.549Z,24.84
2022-09-02T17:41:58.511Z,24.80
2022-09-02T17:44:36.487Z,24.77
2022-09-02T17:47:12.040Z,24.70
2022-09-02T17:49:42.309Z,24.64
2022-09-02T17:52:10.154Z,24.60
2022-09-02T17:54:39.326Z,24.58
2022-09-02T17:57:28.344Z,24.51
2022-09-02T18:00:19.213Z,24.41
2022-09-02T18:02:57.898Z,24.33
2022-09-02T18:05:36.733Z,24.26
2022-09-02T18:08:25.694Z,24.17
2022-09-02T18:10:58.085Z,24.06
2022-09-02T18:13:54.421Z,23.94
2022-09-02T18:16:36.613Z,23.83
2022-09-02T18:19:16.323Z,23.74
2022-09-02T18:21:52.093Z,23.65
2022-09-02T18:24:33.600Z,23.54
2022-09-02T18:27:41.950Z,23.44
2022-09-02T18:30:12.582Z,23.34
2022-09-02T18:33:02.868Z,23.21
2022-09-02T18:35:50.973Z,23.09
2022-09-02T18:38:52.793Z,22.98
2022-09-02T18:41:55.175Z,22.93
2022-09-02T18:45:03.311Z,22.82
2022-09-02T18:47:54.341Z,22.75
2022-09-02T18:53:21.387Z,22.60
2022-09-02T18:55:48.774Z,22.50
2022-09-02T18:58:34.291Z,22.45
2022-09-02T19:01:43.836Z,22.37
2022-09-02T19:04:11.061Z,22.26
2022-09-02T19:06:37.742Z,22.20
2022-09-02T19:09:13.317Z,22.11
2022-09-02T19:11:40.175Z,22.02
2022-09-02T19:14:26.466Z,21.98
2022-09-02T19:16:54.349Z,21.94
2022-09-02T19:19:21.261Z,21.86
2022-09-02T19:21:52.474Z,21.82
2022-09-02T19:24:32.531Z,21.76
2022-09-02T19:27:07.278Z,21.72
2022-09-02T19:29:37.354Z,21.66
2022-09-02T19:32:05.239Z,21.62
2022-09-02T19:34:37.260Z,21.59
2022-09-02T19:37:07.209Z,21.55
2022-09-02T19:39:34.044Z,21.52
2022-09-02T19:42:01.528Z,21.48
2022-09-02T19:44:28.624Z,21.43
2022-09-02T19:47:42.144Z,21.38
2022-09-02T19:49:42.668Z,21.33
2022-09-02T19:52:11.277Z,21.27
2022-09-02T19:54:41.058Z,21.25
2022-09-02T19:57:07.802Z,21.18
2022-09-02T19:59:34.442Z,21.17
2022-09-02T20:02:03.345Z,21.12
2022-09-02T20:04:31.287Z,21.08
2022-09-02T20:07:00.439Z,21.05
2022-09-02T20:09:29.308Z,21.00
2022-09-02T20:11:56.340Z,20.93
2022-09-02T20:14:23.277Z,20.91
2022-09-02T20:16:57.362Z,20.85
2022-09-02T20:19:24.068Z,20.81
2022-09-02T20:21:53.279Z,20.75
2022-09-02T20:24:25.666Z,20.72
2022-09-02T20:26:56.478Z,20.70
2022-09-02T20:29:36.880Z,20.66
2022-09-02T20:32:31.044Z,20.60
2022-09-02T20:35:22.390Z,20.57
2022-09-02T20:38:20.500Z,20.52
2022-09-02T20:41:16.130Z,20.45
2022-09-02T20:43:46.571Z,20.39
2022-09-02T20:46:28.254Z,20.35
2022-09-02T20:49:22.569Z,20.33
2022-09-02T20:51:59.412Z,20.27
2022-09-02T20:54:58.343Z,20.21
2022-09-02T20:57:30.954Z,20.18
2022-09-02T21:00:04.478Z,20.13
2022-09-02T21:02:57.929Z,20.07
2022-09-02T21:05:42.223Z,20.02
2022-09-02T21:08:24.638Z,19.96
2022-09-02T21:11:00.663Z,19.90
2022-09-02T21:13:54.263Z,19.86
2022-09-02T21:16:28.399Z,19.83
2022-09-02T21:19:30.531Z,19.75
2022-09-02T21:22:12.171Z,19.70
2022-09-02T21:24:53.982Z,19.69
2022-09-02T21:27:31.816Z,19.64
2022-09-02T21:30:07.531Z,19.58
2022-09-02T21:32:54.170Z,19.56
2022-09-02T21:35:47.278Z,19.50
2022-09-02T21:38:36.001Z,19.45
2022-09-02T21:41:20.436Z,19.39
2022-09-02T21:44:22.248Z,19.33
2022-09-02T21:47:01.796Z,19.28
2022-09-02T21:49:41.492Z,19.26
2022-09-02T21:52:27.146Z,19.21
2022-09-02T21:55:25.395Z,19.14
2022-09-02T21:58:07.216Z,19.10
2022-09-02T22:00:34.663Z,19.08
2022-09-02T22:03:30.246Z,19.06
2022-09-02T22:06:10.322Z,19.03
2022-09-02T22:08:48.480Z,19.01
2022-09-02T22:11:26.696Z,18.97
2022-09-02T22:13:58.322Z,18.95
2022-09-02T22:16:37.545Z,18.95
2022-09-02T22:19:06.306Z,18.93
2022-09-02T22:21:50.430Z,18.91
2022-09-02T22:24:28.600Z,18.88
2022-09-02T22:27:08.848Z,18.87
2022-09-02T22:29:44.111Z,18.84
2022-09-02T22:32:14.472Z,18.83
2022-09-02T22:34:49.711Z,18.80
2022-09-02T22:37:24.366Z,18.77
2022-09-02T22:39:53.083Z,18.76
2022-09-02T22:42:36.591Z,18.76
2022-09-02T22:45:43.053Z,18.74
2022-09-02T22:48:34.741Z,18.70
2022-09-02T22:51:25.465Z,18.67
2022-09-02T22:53:52.151Z,18.65
2022-09-02T22:56:39.784Z,18.63
2022-09-02T22:59:35.811Z,18.59
2022-09-02T23:02:11.538Z,18.57
2022-09-02T23:04:51.507Z,18.51
2022-09-02T23:07:18.092Z,18.47
2022-09-02T23:09:53.805Z,18.44
2022-09-02T23:12:50.958Z,18.40
2022-09-02T23:15:27.286Z,18.37
2022-09-02T23:18:24.367Z,18.33
2022-09-02T23:21:07.391Z,18.28
2022-09-02T23:24:01.980Z,18.24
2022-09-02T23:26:31.907Z,18.21
2022-09-02T23:29:19.812Z,18.18
2022-09-02T23:32:26.075Z,18.17
2022-09-02T23:35:19.214Z,18.14
2022-09-02T23:37:45.700Z,18.11
2022-09-02T23:40:21.349Z,18.07
2022-09-02T23:42:49.697Z,18.05
2022-09-02T23:45:25.855Z,18.01
2022-09-02T23:48:07.499Z,18.01
2022-09-02T23:50:37.759Z,17.98
2022-09-02T23:53:13.901Z,17.96
2022-09-02T23:55:52.397Z,17.93
2022-09-02T23:58:41.463Z,17.90
